KBLM

Monmouth Executive Airport

Belmar/Farmingdale, New Jersey, USA
METAR KBLM 201856Z AUTO 27008KT 10SM FEW029 BKN036 16/10 A2967 RMK AO2 SLP052 T01610100
Observed Flight Rules
Oct-20 @ 18:56 UTC (25 minutes ago) Visual Flight Rules
Wind Visibility Clouds
270° at 8 knots 10 miles
  • Few at 2,900' AGL
  • Broken at 3,600' AGL
Temperatures Readings
Current 16°C / 61°F
Dewpoint 10°C / 50°F
Humidity 68%
Altimeter 29.67" Hg
Pressure 1005.2 hPa
Elevation 48
METAR KBLM 201856Z AUTO 27008KT 10SM FEW029 BKN036 16/10 A2967 RMK AO2 SLP052 T01610100
Observed Flight Rules
Oct-20 @ 18:56 UTC
(25 minutes ago)
VFR
Wind Visibility
270° at 8 knots 10 miles
Clouds
  • Few at 2,900' AGL
  • Broken at 3,600' AGL
Temperature Dewpoint
16°C / 61°F 10°C / 50°F
Humidity Altimeter Pressure
68% 29.67" Hg 1005.2 hPa